Time;durP1;ratioP1;P1;durP2;ratioP2;P2;SDS_P1;SDS_P2;PMS_P1;PMS_P2;Temp;Humidity;BMP_temperature;BMP_pressure;BME280_temperature;BME280_humidity;BME280_pressure;Samples;Min_cycle;Max_cycle;Signal;HPM_P1;HPM_P2
2021/04/26 11:39:10;;;;;;;32.20;30.92;;;;;;;;;;5090873;28;20537;-72
2021/04/26 11:41:43;;;;;;;32.42;30.05;;;;;;;;;;5089549;28;20625;-72
2021/04/26 11:44:09;;;;;;;32.25;31.15;;;;;;;;;;5090772;28;20164;-72
2021/04/26 11:46:35;;;;;;;33.88;32.38;;;;;;;;;;5090748;28;20513;-72
2021/04/26 11:52:21;;;;;;;34.25;33.03;;;;;;;;;;5090480;28;20257;-72
2021/04/26 11:54:47;;;;;;;33.78;32.47;;;;;;;;;;5090605;28;20179;-72
2021/04/26 11:57:19;;;;;;;35.08;33.78;;;;;;;;;;5090503;28;20200;-72
2021/04/26 11:59:52;;;;;;;38.00;36.35;;;;;;;;;;5090475;28;20164;-72
2021/04/26 12:02:31;;;;;;;37.85;36.35;;;;;;;;;;5090641;28;20247;-73
2021/04/26 12:04:58;;;;;;;36.53;35.17;;;;;;;;;;5090845;28;20570;-73
2021/04/26 12:07:24;;;;;;;41.15;39.47;;;;;;;;;;5090365;28;20181;-73
2021/04/26 12:09:59;;;;;;;52.15;49.92;;;;;;;;;;5090056;28;20429;-73
2021/04/26 12:12:30;;;;;;;47.25;45.35;;;;;;;;;;5089044;28;20640;-73
2021/04/26 12:14:58;;;;;;;41.53;39.83;;;;;;;;;;5090238;28;20168;-73
2021/04/26 12:17:25;;;;;;;43.83;42.03;;;;;;;;;;5090157;28;20196;-76
2021/04/26 12:19:51;;;;;;;44.65;42.85;;;;;;;;;;5089140;28;20233;-77
2021/04/26 12:22:20;;;;;;;46.25;44.35;;;;;;;;;;5090106;28;20524;-79
2021/04/26 12:24:46;;;;;;;42.95;41.25;;;;;;;;;;5089868;28;20160;-78
2021/04/26 12:27:14;;;;;;;45.80;43.90;;;;;;;;;;5089893;28;20586;-79
2021/04/26 12:29:41;;;;;;;42.72;41.05;;;;;;;;;;5089792;28;20191;-75
2021/04/26 12:32:17;;;;;;;42.40;40.70;;;;;;;;;;5089810;28;20164;-75
2021/04/26 12:34:51;;;;;;;41.78;40.08;;;;;;;;;;5088355;28;20176;-74
2021/04/26 12:37:19;;;;;;;44.33;42.63;;;;;;;;;;5089545;28;20219;-72
2021/04/26 12:39:45;;;;;;;44.40;42.60;;;;;;;;;;5089760;28;20164;-74
2021/04/26 12:42:15;;;;;;;44.38;42.67;;;;;;;;;;5089562;28;20164;-73
2021/04/26 12:44:42;;;;;;;42.78;41.08;;;;;;;;;;5088996;28;20168;-72
2021/04/26 12:47:34;;;;;;;43.35;41.65;;;;;;;;;;5089423;28;20175;-72
2021/04/26 12:50:14;;;;;;;44.28;42.55;;;;;;;;;;5078507;28;20188;-72
2021/04/26 12:52:40;;;;;;;40.75;39.15;;;;;;;;;;5075670;28;20213;-78
2021/04/26 12:55:08;;;;;;;38.13;36.65;;;;;;;;;;5075555;28;20172;-80
2021/04/26 12:57:35;;;;;;;39.13;37.65;;;;;;;;;;5075887;28;20192;-83
2021/04/26 13:00:02;;;;;;;43.25;41.55;;;;;;;;;;5074822;28;20518;-77
2021/04/26 13:02:29;;;;;;;44.20;42.20;;;;;;;;;;5076075;28;20164;-75
2021/04/26 13:04:56;;;;;;;41.85;40.25;;;;;;;;;;5075788;28;20165;-76
2021/04/26 13:21:51;;;;;;;36.67;35.33;;;;;;;;;;5090893;27;20598;-79
2021/04/26 13:24:18;;;;;;;41.08;39.28;;;;;;;;;;5091819;28;20629;-81
2021/04/26 13:26:46;;;;;;;44.33;42.58;;;;;;;;;;5094062;28;20640;-79
2021/04/26 13:29:16;;;;;;;46.60;44.70;;;;;;;;;;5089302;28;20171;-71
2021/04/26 13:31:47;;;;;;;46.75;44.90;;;;;;;;;;5090841;28;20172;-69
2021/04/26 13:34:13;;;;;;;46.13;44.33;;;;;;;;;;5089367;28;20183;-70
2021/04/26 13:36:39;;;;;;;48.63;46.63;;;;;;;;;;5090386;28;20171;-68
2021/04/26 13:39:10;;;;;;;48.38;46.40;;;;;;;;;;5090522;28;20187;-69
2021/04/26 13:41:36;;;;;;;49.75;47.75;;;;;;;;;;5090313;28;20204;-68
2021/04/26 13:44:02;;;;;;;48.67;46.67;;;;;;;;;;5089298;28;20179;-70
2021/04/26 13:46:29;;;;;;;50.97;48.88;;;;;;;;;;5090408;28;20171;-71
2021/04/26 13:48:55;;;;;;;54.25;51.92;;;;;;;;;;5090403;28;20165;-72
2021/04/26 13:51:21;;;;;;;52.17;50.00;;;;;;;;;;5089000;28;20198;-71
2021/04/26 13:53:47;;;;;;;52.13;49.63;;;;;;;;;;5090299;28;20168;-71
2021/04/26 13:56:13;;;;;;;52.20;50.00;;;;;;;;;;5089093;28;20179;-70
2021/04/26 13:58:39;;;;;;;46.65;44.78;;;;;;;;;;5090171;28;20168;-71
2021/04/26 14:01:05;;;;;;;47.05;45.17;;;;;;;;;;5090118;28;20274;-71
2021/04/26 14:03:31;;;;;;;47.65;45.67;;;;;;;;;;5090104;28;20183;-71
2021/04/26 14:05:58;;;;;;;43.45;41.72;;;;;;;;;;5090009;28;20175;-72
2021/04/26 14:08:24;;;;;;;44.42;42.67;;;;;;;;;;5088065;28;20180;-72
2021/04/26 14:10:51;;;;;;;44.65;42.88;;;;;;;;;;5089988;28;20172;-72
2021/04/26 14:13:17;;;;;;;52.63;50.47;;;;;;;;;;5088629;28;20211;-71
2021/04/26 14:15:43;;;;;;;48.78;46.80;;;;;;;;;;5089911;28;20185;-72
2021/04/26 14:18:10;;;;;;;52.55;50.38;;;;;;;;;;5089854;28;20192;-70
2021/04/26 14:20:38;;;;;;;50.53;48.45;;;;;;;;;;5087493;28;20223;-71
2021/04/26 14:23:07;;;;;;;56.38;53.90;;;;;;;;;;5089176;28;20164;-68
2021/04/26 14:25:33;;;;;;;50.65;48.58;;;;;;;;;;5089152;28;20167;-71
2021/04/26 14:27:59;;;;;;;56.47;54.13;;;;;;;;;;5090324;28;20167;-72
2021/04/26 14:30:25;;;;;;;58.58;56.10;;;;;;;;;;5089693;28;20176;-71
2021/04/26 14:32:51;;;;;;;58.50;55.97;;;;;;;;;;5078079;28;20164;-71
2021/04/26 14:35:17;;;;;;;61.55;58.90;;;;;;;;;;5076003;28;20691;-71
2021/04/26 14:37:43;;;;;;;55.75;53.42;;;;;;;;;;5074696;28;20180;-72
2021/04/26 14:40:10;;;;;;;60.88;58.33;;;;;;;;;;5075880;28;20188;-71
2021/04/26 14:42:36;;;;;;;65.28;62.50;;;;;;;;;;5075305;28;20165;-72
2021/04/26 14:45:02;;;;;;;71.82;68.72;;;;;;;;;;5074981;28;20165;-72
2021/04/26 14:47:28;;;;;;;67.80;64.95;;;;;;;;;;5074385;28;20247;-70
2021/04/26 14:49:55;;;;;;;63.95;61.20;;;;;;;;;;5075346;28;20182;-71
2021/04/26 14:52:20;;;;;;;66.22;63.42;;;;;;;;;;5075670;28;20172;-70
2021/04/26 14:54:46;;;;;;;67.32;64.47;;;;;;;;;;5075303;28;20513;-69
2021/04/26 14:57:12;;;;;;;72.63;69.50;;;;;;;;;;5075600;28;20176;-69
2021/04/26 14:59:39;;;;;;;66.97;64.10;;;;;;;;;;5075453;28;20211;-69
2021/04/26 15:02:04;;;;;;;68.18;65.22;;;;;;;;;;5075534;28;20192;-69
2021/04/26 15:04:30;;;;;;;73.95;70.78;;;;;;;;;;5075157;28;20207;-70
2021/04/26 15:07:21;;;;;;;78.65;75.30;;;;;;;;;;5075136;28;20168;-71
2021/04/26 15:09:46;;;;;;;78.38;74.72;;;;;;;;;;5075482;28;20697;-75
2021/04/26 15:12:12;;;;;;;81.88;78.32;;;;;;;;;;5075405;28;20534;-76
2021/04/26 15:14:38;;;;;;;83.25;79.68;;;;;;;;;;5075273;28;20180;-76
2021/04/26 15:17:04;;;;;;;89.05;85.22;;;;;;;;;;5075089;28;20272;-76
2021/04/26 15:19:30;;;;;;;90.65;86.60;;;;;;;;;;5075078;28;20172;-76
2021/04/26 15:21:56;;;;;;;63.90;61.13;;;;;;;;;;5075252;28;20168;-75
2021/04/26 15:24:23;;;;;;;62.75;60.10;;;;;;;;;;5075214;28;20160;-81
2021/04/26 15:26:49;;;;;;;58.53;56.05;;;;;;;;;;5074951;28;20171;-72
2021/04/26 15:29:15;;;;;;;68.75;65.78;;;;;;;;;;5075098;28;20256;-73
2021/04/26 15:31:41;;;;;;;67.70;64.82;;;;;;;;;;5074795;28;20172;-79
2021/04/26 15:34:10;;;;;;;67.53;64.65;;;;;;;;;;5074919;28;20247;-77
2021/04/26 15:36:36;;;;;;;63.83;61.13;;;;;;;;;;5074925;28;20164;-77
2021/04/26 15:39:03;;;;;;;70.10;67.10;;;;;;;;;;5074828;28;20520;-76
2021/04/26 15:41:29;;;;;;;70.25;67.25;;;;;;;;;;5074676;28;20642;-76
2021/04/26 15:43:55;;;;;;;77.47;74.15;;;;;;;;;;5073636;28;20544;-76
2021/04/26 15:46:22;;;;;;;83.50;79.82;;;;;;;;;;5073376;28;20234;-84
2021/04/26 15:51:51;;;;;;;77.65;74.28;;;;;;;;;;5074710;28;20563;-76
2021/04/26 15:54:17;;;;;;;73.75;70.57;;;;;;;;;;5074444;28;20168;-76
2021/04/26 15:56:44;;;;;;;86.97;83.22;;;;;;;;;;5073175;28;20172;-76
2021/04/26 15:59:10;;;;;;;69.50;66.50;;;;;;;;;;5074422;28;20164;-76
2021/04/26 16:01:36;;;;;;;69.78;66.78;;;;;;;;;;5074286;28;20679;-74
2021/04/26 16:04:02;;;;;;;76.10;72.40;;;;;;;;;;5074124;28;20216;-71
2021/04/26 16:06:28;;;;;;;77.15;73.85;;;;;;;;;;5074083;28;20225;-71
2021/04/26 16:08:54;;;;;;;82.15;78.55;;;;;;;;;;5074103;28;20168;-73
2021/04/26 16:11:20;;;;;;;77.22;73.88;;;;;;;;;;5072791;28;20168;-71
2021/04/26 16:13:46;;;;;;;86.55;82.57;;;;;;;;;;5073952;28;20172;-71
2021/04/26 16:16:12;;;;;;;87.00;83.22;;;;;;;;;;5074135;28;20168;-70
2021/04/26 16:18:38;;;;;;;90.18;86.07;;;;;;;;;;5073976;28;20168;-70
2021/04/26 16:21:04;;;;;;;92.72;88.60;;;;;;;;;;5073714;28;20247;-70
2021/04/26 16:23:30;;;;;;;99.32;95.00;;;;;;;;;;5073732;28;20179;-70
2021/04/26 16:25:56;;;;;;;86.32;82.57;;;;;;;;;;5074028;28;20665;-70
2021/04/26 16:28:22;;;;;;;90.75;86.82;;;;;;;;;;5073885;28;20173;-70
2021/04/26 16:30:48;;;;;;;90.75;86.80;;;;;;;;;;5073888;28;20263;-70
2021/04/26 16:33:14;;;;;;;96.15;91.47;;;;;;;;;;5073860;28;20290;-70
2021/04/26 16:35:40;;;;;;;106.35;100.90;;;;;;;;;;5073700;28;20173;-71
2021/04/26 16:38:08;;;;;;;102.88;97.95;;;;;;;;;;5070970;28;20183;-70
2021/04/26 16:40:34;;;;;;;93.97;89.43;;;;;;;;;;5073792;28;20227;-71
2021/04/26 16:43:00;;;;;;;96.63;92.30;;;;;;;;;;5073657;28;20177;-71
2021/04/26 16:45:26;;;;;;;96.22;91.97;;;;;;;;;;5073536;28;20247;-72
2021/04/26 16:47:53;;;;;;;99.90;95.47;;;;;;;;;;5073324;28;20167;-71
2021/04/26 16:50:20;;;;;;;88.03;84.10;;;;;;;;;;5072192;28;20172;-71
2021/04/26 16:52:46;;;;;;;90.18;85.82;;;;;;;;;;5073458;28;20195;-71
2021/04/26 16:55:12;;;;;;;105.45;98.03;;;;;;;;;;5072278;28;20176;-71
2021/04/26 16:57:38;;;;;;;97.65;92.53;;;;;;;;;;5073423;28;20173;-71
2021/04/26 17:00:06;;;;;;;91.32;86.90;;;;;;;;;;5073325;28;20195;-72
2021/04/26 17:02:32;;;;;;;84.03;80.40;;;;;;;;;;5073445;28;20161;-71
2021/04/26 17:04:58;;;;;;;81.72;78.18;;;;;;;;;;5073362;28;20680;-71
2021/04/26 17:07:24;;;;;;;87.28;83.53;;;;;;;;;;5073387;28;20176;-71
2021/04/26 17:09:50;;;;;;;87.72;83.78;;;;;;;;;;5073378;28;20247;-71
2021/04/26 17:12:16;;;;;;;87.78;83.85;;;;;;;;;;5073297;28;20168;-71
2021/04/26 17:14:42;;;;;;;91.45;87.47;;;;;;;;;;5073267;28;20172;-71
2021/04/26 17:17:08;;;;;;;81.57;78.03;;;;;;;;;;5073264;28;20165;-71
2021/04/26 17:19:34;;;;;;;79.95;76.43;;;;;;;;;;5072981;28;20230;-71
2021/04/26 17:22:01;;;;;;;85.00;81.35;;;;;;;;;;5073328;28;20178;-71
2021/04/26 17:24:27;;;;;;;82.85;79.28;;;;;;;;;;5073217;28;20694;-71
2021/04/26 17:26:55;;;;;;;89.75;85.78;;;;;;;;;;5073291;28;20530;-72
2021/04/26 17:29:23;;;;;;;92.93;88.85;;;;;;;;;;5072037;28;20231;-72
2021/04/26 17:31:50;;;;;;;89.50;85.63;;;;;;;;;;5073076;28;20210;-72
2021/04/26 17:34:16;;;;;;;94.80;90.68;;;;;;;;;;5072942;28;20191;-72
2021/04/26 17:36:42;;;;;;;96.78;92.50;;;;;;;;;;5072928;28;20211;-72
2021/04/26 17:39:08;;;;;;;96.50;92.32;;;;;;;;;;5072912;28;20172;-72
2021/04/26 17:41:34;;;;;;;98.10;93.65;;;;;;;;;;5072845;28;20211;-72
2021/04/26 17:44:00;;;;;;;101.88;97.38;;;;;;;;;;5072865;28;20210;-72
2021/04/26 17:46:26;;;;;;;106.95;102.10;;;;;;;;;;5071485;28;20256;-72
